createdAt,value
2023-04-21T00:01:25.426Z,6.57
2023-04-21T00:03:51.847Z,6.45
2023-04-21T00:06:19.393Z,6.32
2023-04-21T00:08:45.683Z,6.25
2023-04-21T00:11:12.009Z,6.72
2023-04-21T00:13:38.328Z,7.07
2023-04-21T00:16:05.038Z,6.60
2023-04-21T00:18:31.455Z,6.82
2023-04-21T00:20:57.753Z,6.95
2023-04-21T00:23:24.132Z,6.88
2023-04-21T00:25:50.567Z,6.68
2023-04-21T00:28:16.870Z,6.65
2023-04-21T00:30:43.217Z,6.20
2023-04-21T00:33:09.538Z,6.93
2023-04-21T00:35:35.964Z,6.35
2023-04-21T00:38:02.343Z,7.40
2023-04-21T00:40:28.699Z,6.85
2023-04-21T00:42:55.051Z,7.00
2023-04-21T00:45:21.365Z,7.18
2023-04-21T00:47:47.727Z,6.80
2023-04-21T00:50:14.168Z,6.97
2023-04-21T00:52:41.215Z,7.20
2023-04-21T00:55:08.148Z,7.03
2023-04-21T00:57:36.907Z,6.93
2023-04-21T01:00:05.611Z,7.60
2023-04-21T01:02:34.745Z,7.30
2023-04-21T01:05:01.125Z,8.63
2023-04-21T01:07:28.288Z,7.35
2023-04-21T01:12:20.790Z,7.75
2023-04-21T01:14:47.111Z,8.18
2023-04-21T01:17:13.392Z,7.55
2023-04-21T01:19:42.284Z,7.70
2023-04-21T01:22:09.769Z,7.35
2023-04-21T01:24:45.223Z,7.70
2023-04-21T01:27:17.186Z,8.38
2023-04-21T01:29:44.911Z,7.38
2023-04-21T01:32:14.328Z,8.30
2023-04-21T01:34:41.479Z,8.35
2023-04-21T01:37:13.243Z,8.20
2023-04-21T01:39:41.230Z,8.73
2023-04-21T01:42:07.992Z,8.25
2023-04-21T01:44:35.256Z,8.35
2023-04-21T01:49:28.068Z,7.97
2023-04-21T01:51:54.403Z,8.70
2023-04-21T01:54:20.751Z,8.98
2023-04-21T01:59:27.143Z,8.02
2023-04-21T02:01:53.739Z,9.00
2023-04-21T02:04:20.172Z,7.53
2023-04-21T02:06:46.536Z,8.55
2023-04-21T02:09:12.825Z,7.90
2023-04-21T02:11:39.133Z,9.07
2023-04-21T02:14:05.488Z,8.18
2023-04-21T02:16:31.873Z,8.63
2023-04-21T02:19:00.715Z,8.68
2023-04-21T02:21:27.762Z,8.90
2023-04-21T02:23:54.234Z,8.88
2023-04-21T02:26:20.872Z,8.45
2023-04-21T02:31:12.973Z,8.80
2023-04-21T02:33:39.479Z,8.63
2023-04-21T02:36:06.098Z,8.80
2023-04-21T02:38:32.474Z,9.25
2023-04-21T02:40:58.820Z,8.30
2023-04-21T02:43:25.197Z,8.55
2023-04-21T02:45:51.606Z,9.07
2023-04-21T02:48:19.869Z,8.93
2023-04-21T02:50:46.178Z,9.35
2023-04-21T02:53:12.530Z,8.90
2023-04-21T02:55:38.819Z,9.93
2023-04-21T02:58:05.143Z,9.35
2023-04-21T03:00:31.469Z,8.73
2023-04-21T03:02:57.942Z,9.68
2023-04-21T03:05:24.546Z,9.13
2023-04-21T03:07:50.904Z,8.75
2023-04-21T03:12:57.229Z,9.75
2023-04-21T03:15:23.757Z,9.48
2023-04-21T03:17:50.127Z,10.05
2023-04-21T03:20:16.457Z,10.25
2023-04-21T03:22:42.781Z,8.68
2023-04-21T03:25:09.124Z,10.05
2023-04-21T03:27:35.428Z,9.40
2023-04-21T03:30:01.825Z,9.57
2023-04-21T03:32:28.476Z,9.65
2023-04-21T03:34:54.824Z,10.35
2023-04-21T03:37:21.209Z,9.60
2023-04-21T03:39:47.535Z,10.68
2023-04-21T03:42:13.812Z,10.32
2023-04-21T03:44:40.128Z,10.68
2023-04-21T03:47:06.450Z,10.82
2023-04-21T03:49:35.845Z,9.73
2023-04-21T03:52:02.398Z,9.82
2023-04-21T03:54:31.525Z,10.45
2023-04-21T03:56:57.845Z,9.88
2023-04-21T03:59:24.145Z,10.93
2023-04-21T04:01:50.483Z,10.10
2023-04-21T04:04:16.980Z,10.25
2023-04-21T04:06:43.559Z,10.00
2023-04-21T04:09:09.890Z,10.32
2023-04-21T04:11:36.205Z,11.05
2023-04-21T04:14:02.584Z,10.13
2023-04-21T04:16:29.278Z,9.93
2023-04-21T04:18:55.800Z,10.73
2023-04-21T04:21:22.156Z,9.98
2023-04-21T04:23:50.453Z,11.43
2023-04-21T04:26:16.834Z,10.43
2023-04-21T04:28:43.234Z,9.90
2023-04-21T04:31:09.586Z,10.75
2023-04-21T04:33:35.943Z,13.02
2023-04-21T04:36:02.284Z,11.57
2023-04-21T04:38:28.629Z,10.02
2023-04-21T04:40:55.892Z,10.82
2023-04-21T04:48:13.983Z,10.20
2023-04-21T04:50:40.312Z,10.35
2023-04-21T04:53:06.640Z,9.75
2023-04-21T04:55:32.951Z,10.13
2023-04-21T04:57:59.327Z,10.30
2023-04-21T05:00:25.759Z,9.60
2023-04-21T05:02:52.420Z,10.45
2023-04-21T05:05:20.073Z,9.93
2023-04-21T05:07:46.411Z,10.48
2023-04-21T05:10:12.892Z,11.13
2023-04-21T05:12:39.435Z,9.45
2023-04-21T05:15:06.715Z,11.18
2023-04-21T05:17:33.744Z,10.27
2023-04-21T05:20:00.122Z,10.52
2023-04-21T05:22:26.481Z,10.52
2023-04-21T05:24:53.239Z,9.38
2023-04-21T05:27:19.592Z,11.05
2023-04-21T05:29:45.875Z,10.93
2023-04-21T05:32:12.380Z,9.90
2023-04-21T05:34:38.784Z,10.35
2023-04-21T05:37:05.198Z,9.98
2023-04-21T05:39:31.474Z,10.68
2023-04-21T05:41:57.845Z,10.35
2023-04-21T05:44:24.181Z,10.75
2023-04-21T05:46:50.559Z,10.85
2023-04-21T05:49:16.876Z,10.48
2023-04-21T05:51:43.090Z,10.85
2023-04-21T05:54:09.521Z,9.80
2023-04-21T05:56:35.803Z,10.20
2023-04-21T05:59:02.119Z,10.05
2023-04-21T06:01:28.488Z,10.48
2023-04-21T06:03:54.886Z,10.32
2023-04-21T06:06:21.361Z,11.65
2023-04-21T06:11:27.777Z,9.15
2023-04-21T06:13:54.165Z,8.95
2023-04-21T06:16:20.663Z,9.52
2023-04-21T06:18:46.999Z,9.57
2023-04-21T06:21:13.328Z,8.77
2023-04-21T06:23:39.663Z,9.43
2023-04-21T06:26:07.025Z,9.50
2023-04-21T06:28:34.688Z,9.00
2023-04-21T06:31:02.421Z,9.32
2023-04-21T06:33:29.199Z,9.05
2023-04-21T06:35:55.900Z,9.82
2023-04-21T06:38:22.473Z,9.93
2023-04-21T06:43:14.033Z,9.52
2023-04-21T06:45:40.507Z,9.75
2023-04-21T06:48:06.971Z,9.10
2023-04-21T06:50:33.743Z,9.02
2023-04-21T06:53:00.094Z,8.38
2023-04-21T06:55:26.439Z,8.88
2023-04-21T06:57:52.755Z,9.35
2023-04-21T07:02:44.297Z,8.95
2023-04-21T07:05:10.652Z,9.13
2023-04-21T07:07:36.986Z,9.48
2023-04-21T07:10:03.455Z,9.00
2023-04-21T07:12:29.811Z,8.98
2023-04-21T07:14:56.127Z,9.35
2023-04-21T07:17:22.713Z,8.43
2023-04-21T07:19:49.035Z,9.07
2023-04-21T07:22:15.342Z,10.02
2023-04-21T07:24:41.633Z,9.38
2023-04-21T07:27:07.961Z,9.63
2023-04-21T07:29:34.356Z,8.68
2023-04-21T07:32:00.658Z,8.15
2023-04-21T07:34:26.967Z,8.98
2023-04-21T07:36:55.665Z,9.18
2023-04-21T07:39:22.532Z,9.57
2023-04-21T07:46:44.234Z,9.40
2023-04-21T07:49:10.709Z,9.40
2023-04-21T07:51:37.015Z,9.65
2023-04-21T07:54:03.737Z,8.57
2023-04-21T07:56:30.049Z,9.40
2023-04-21T07:58:56.378Z,8.68
2023-04-21T08:01:22.757Z,8.98
2023-04-21T08:06:14.332Z,8.75
2023-04-21T08:08:41.011Z,8.77
2023-04-21T08:11:08.596Z,9.65
2023-04-21T08:13:36.718Z,9.85
2023-04-21T08:16:05.588Z,9.13
2023-04-21T08:18:32.118Z,8.80
2023-04-21T08:20:58.465Z,9.27
2023-04-21T08:23:24.860Z,9.20
2023-04-21T08:25:51.285Z,8.57
2023-04-21T08:30:57.632Z,8.55
2023-04-21T08:33:23.931Z,8.35
2023-04-21T08:36:02.339Z,8.52
2023-04-21T08:38:32.126Z,9.25
2023-04-21T08:40:59.562Z,8.80
2023-04-21T08:43:26.065Z,9.25
2023-04-21T08:45:53.031Z,8.68
2023-04-21T08:48:21.215Z,9.10
2023-04-21T08:53:13.653Z,9.02
2023-04-21T08:55:41.715Z,8.90
2023-04-21T08:58:08.589Z,9.00
2023-04-21T09:03:02.796Z,8.32
2023-04-21T09:05:31.941Z,8.20
2023-04-21T09:08:09.910Z,8.35
2023-04-21T09:13:36.545Z,8.10
2023-04-21T09:16:19.743Z,8.63
2023-04-21T09:18:46.115Z,8.70
2023-04-21T09:23:57.195Z,8.50
2023-04-21T09:26:23.746Z,8.88
2023-04-21T09:28:52.404Z,8.50
2023-04-21T09:31:22.436Z,9.48
2023-04-21T09:36:22.215Z,8.20
2023-04-21T09:41:17.109Z,8.15
2023-04-21T09:43:43.423Z,7.60
2023-04-21T09:46:11.912Z,7.57
2023-04-21T09:48:43.546Z,7.55
2023-04-21T09:51:28.864Z,7.65
2023-04-21T09:53:45.336Z,7.80
2023-04-21T09:56:14.421Z,7.50
2023-04-21T09:58:47.007Z,7.53
2023-04-21T10:01:14.874Z,7.72
2023-04-21T10:03:43.524Z,7.60
2023-04-21T10:06:10.260Z,7.32
2023-04-21T10:08:37.334Z,7.10
2023-04-21T10:11:04.526Z,8.05
2023-04-21T10:13:31.572Z,7.30
2023-04-21T10:16:04.332Z,7.30
2023-04-21T10:21:08.353Z,8.50
2023-04-21T10:23:50.203Z,7.28
2023-04-21T10:26:22.100Z,7.55
2023-04-21T10:28:52.437Z,7.38
2023-04-21T10:31:20.275Z,7.07
2023-04-21T10:33:50.221Z,6.65
2023-04-21T10:36:22.183Z,7.13
2023-04-21T10:41:20.208Z,7.67
2023-04-21T10:46:37.052Z,6.63
2023-04-21T10:49:11.019Z,7.43
2023-04-21T10:54:14.335Z,7.43
2023-04-21T10:56:41.094Z,7.53
2023-04-21T10:59:07.779Z,7.13
2023-04-21T11:04:00.738Z,7.30
2023-04-21T11:06:27.131Z,6.82
2023-04-21T11:08:57.053Z,7.18
2023-04-21T11:11:24.483Z,8.10
2023-04-21T11:13:52.942Z,7.22
2023-04-21T11:16:20.464Z,7.55
2023-04-21T11:18:47.852Z,7.60
2023-04-21T11:21:19.028Z,7.43
2023-04-21T11:23:50.606Z,6.85
2023-04-21T11:26:17.535Z,7.40
2023-04-21T11:28:48.053Z,7.43
2023-04-21T11:31:14.464Z,8.32
2023-04-21T11:33:41.016Z,7.07
2023-04-21T11:36:07.786Z,7.00
2023-04-21T11:38:40.926Z,7.28
2023-04-21T11:41:07.899Z,6.95
2023-04-21T11:43:34.366Z,7.05
2023-04-21T11:46:22.962Z,7.30
2023-04-21T11:49:05.357Z,7.50
2023-04-21T11:51:43.108Z,6.32
2023-04-21T11:54:14.162Z,7.30
2023-04-21T11:56:42.392Z,6.97
2023-04-21T11:59:08.864Z,7.30
2023-04-21T12:01:35.363Z,6.82
2023-04-21T12:04:03.904Z,7.80
2023-04-21T12:06:30.367Z,6.95
2023-04-21T12:09:03.123Z,7.38
2023-04-21T12:14:00.603Z,7.30
2023-04-21T12:16:29.957Z,7.15
2023-04-21T12:18:56.598Z,6.70
2023-04-21T12:21:27.198Z,6.50
2023-04-21T12:23:53.658Z,6.35
2023-04-21T12:26:20.767Z,6.53
2023-04-21T12:28:47.092Z,6.22
2023-04-21T12:31:13.475Z,6.32
2023-04-21T12:33:39.910Z,6.32
2023-04-21T12:36:06.489Z,6.57
2023-04-21T12:38:32.967Z,6.15
2023-04-21T12:40:59.715Z,5.95
2023-04-21T12:45:52.759Z,5.75
2023-04-21T12:48:19.285Z,6.30
2023-04-21T12:50:45.877Z,6.50
2023-04-21T12:53:12.482Z,6.40
2023-04-21T12:55:39.151Z,5.30
2023-04-21T13:00:31.735Z,6.07
2023-04-21T13:02:58.253Z,6.45
2023-04-21T13:05:24.806Z,5.75
2023-04-21T13:07:51.198Z,5.75
2023-04-21T13:10:17.509Z,6.47
2023-04-21T13:12:43.859Z,6.22
2023-04-21T13:15:10.631Z,5.65
2023-04-21T13:20:03.746Z,5.88
2023-04-21T13:22:30.084Z,6.00
2023-04-21T13:24:56.374Z,6.03
2023-04-21T13:27:22.698Z,6.43
2023-04-21T13:29:49.053Z,6.07
2023-04-21T13:32:15.381Z,5.80
2023-04-21T13:34:41.691Z,6.10
2023-04-21T13:37:08.000Z,6.22
2023-04-21T13:39:34.674Z,6.03
2023-04-21T13:42:01.280Z,5.88
2023-04-21T13:44:27.693Z,5.60
2023-04-21T13:46:54.293Z,6.47
2023-04-21T13:51:46.856Z,5.50
2023-04-21T13:54:13.397Z,6.30
2023-04-21T13:56:39.792Z,5.75
2023-04-21T13:59:06.206Z,5.88
2023-04-21T14:01:32.590Z,5.90
2023-04-21T14:03:59.112Z,6.07
2023-04-21T14:06:25.528Z,5.95
2023-04-21T14:08:51.873Z,6.05
2023-04-21T14:11:18.180Z,5.95
2023-04-21T14:13:56.128Z,5.28
2023-04-21T14:16:30.865Z,5.35
2023-04-21T14:18:57.214Z,5.28
2023-04-21T14:21:23.573Z,5.70
2023-04-21T14:23:49.959Z,5.47
2023-04-21T14:26:16.395Z,5.55
2023-04-21T14:28:42.760Z,6.07
2023-04-21T14:31:09.279Z,5.53
2023-04-21T14:33:35.834Z,6.03
2023-04-21T14:36:02.175Z,5.60
2023-04-21T14:38:28.491Z,5.68
2023-04-21T14:40:54.784Z,6.10
2023-04-21T14:43:21.582Z,5.97
2023-04-21T14:45:48.411Z,5.57
2023-04-21T14:48:14.904Z,6.35
2023-04-21T14:50:41.417Z,5.72
2023-04-21T14:53:07.867Z,6.15
2023-04-21T14:55:34.459Z,5.72
2023-04-21T14:58:00.740Z,5.80
2023-04-21T15:00:27.101Z,5.28
2023-04-21T15:02:53.573Z,5.50
2023-04-21T15:05:20.072Z,6.05
2023-04-21T15:07:46.470Z,5.72
2023-04-21T15:10:13.142Z,5.45
2023-04-21T15:12:39.541Z,5.47
2023-04-21T15:15:06.376Z,5.93
2023-04-21T15:17:32.693Z,5.32
2023-04-21T15:19:59.506Z,5.68
2023-04-21T15:22:26.013Z,5.53
2023-04-21T15:24:54.377Z,5.53
2023-04-21T15:27:20.951Z,5.53
2023-04-21T15:29:47.244Z,5.30
2023-04-21T15:32:13.588Z,5.20
2023-04-21T15:37:06.119Z,5.05
2023-04-21T15:41:59.273Z,5.00
2023-04-21T15:44:25.675Z,5.20
2023-04-21T15:46:52.888Z,5.05
2023-04-21T15:49:19.303Z,5.18
2023-04-21T15:51:45.678Z,5.60
2023-04-21T15:56:38.449Z,5.35
2023-04-21T15:59:04.836Z,5.38
2023-04-21T16:01:31.234Z,5.40
2023-04-21T16:06:24.210Z,4.95
2023-04-21T16:08:50.835Z,5.40
2023-04-21T16:11:17.387Z,5.28
2023-04-21T16:13:43.721Z,5.15
2023-04-21T16:16:10.119Z,4.72
2023-04-21T16:18:36.619Z,4.80
2023-04-21T16:23:29.423Z,4.82
2023-04-21T16:28:22.055Z,5.45
2023-04-21T16:30:48.373Z,5.45
2023-04-21T16:33:14.782Z,5.80
2023-04-21T16:35:41.612Z,5.00
2023-04-21T16:38:08.182Z,4.82
2023-04-21T16:40:34.513Z,5.13
2023-04-21T16:43:01.135Z,5.65
2023-04-21T16:45:28.747Z,4.75
2023-04-21T16:47:55.246Z,5.22
2023-04-21T16:50:22.791Z,5.03
2023-04-21T16:52:49.186Z,5.25
2023-04-21T16:55:15.547Z,5.40
2023-04-21T16:57:41.947Z,5.00
2023-04-21T17:00:08.771Z,5.22
2023-04-21T17:05:01.835Z,4.72
2023-04-21T17:07:28.219Z,5.00
2023-04-21T17:09:54.669Z,4.85
2023-04-21T17:12:21.058Z,5.13
2023-04-21T17:14:47.416Z,4.93
2023-04-21T17:17:14.063Z,4.50
2023-04-21T17:19:40.393Z,4.43
2023-04-21T17:22:06.806Z,4.93
2023-04-21T17:24:44.794Z,4.75
2023-04-21T17:27:18.562Z,4.75
2023-04-21T17:29:44.879Z,4.40
2023-04-21T17:32:11.227Z,4.72
2023-04-21T17:34:38.004Z,4.80
2023-04-21T17:37:04.575Z,5.43
2023-04-21T17:39:30.904Z,5.30
2023-04-21T17:41:57.349Z,4.97
2023-04-21T17:44:23.648Z,5.22
2023-04-21T17:46:50.074Z,4.93
2023-04-21T17:49:16.469Z,5.18
2023-04-21T17:51:42.782Z,5.38
2023-04-21T17:54:09.109Z,5.47
2023-04-21T17:56:35.471Z,5.10
2023-04-21T17:59:01.950Z,5.35
2023-04-21T18:01:30.907Z,4.40
2023-04-21T18:03:59.983Z,5.00
2023-04-21T18:06:27.488Z,4.60
2023-04-21T18:08:53.848Z,4.70
2023-04-21T18:11:20.192Z,4.90
2023-04-21T18:13:46.503Z,4.40
2023-04-21T18:16:12.830Z,5.00
2023-04-21T18:18:39.200Z,4.47
2023-04-21T18:21:05.607Z,5.28
2023-04-21T18:23:31.962Z,5.35
2023-04-21T18:25:58.327Z,4.43
2023-04-21T18:28:24.794Z,4.60
2023-04-21T18:30:51.177Z,4.30
2023-04-21T18:33:17.683Z,4.40
2023-04-21T18:35:44.155Z,4.30
2023-04-21T18:38:10.605Z,4.78
2023-04-21T18:40:37.886Z,4.70
2023-04-21T18:43:05.050Z,4.70
2023-04-21T18:45:31.510Z,4.47
2023-04-21T18:47:57.888Z,4.70
2023-04-21T18:50:26.104Z,5.07
2023-04-21T18:52:53.834Z,4.70
2023-04-21T18:55:20.427Z,4.75
2023-04-21T18:57:46.746Z,5.35
2023-04-21T19:00:13.626Z,5.13
2023-04-21T19:02:40.483Z,4.65
2023-04-21T19:07:34.881Z,5.88
2023-04-21T19:10:01.303Z,5.22
2023-04-21T19:12:27.688Z,4.70
2023-04-21T19:14:54.312Z,5.10
2023-04-21T19:17:20.876Z,4.85
2023-04-21T19:19:47.454Z,5.30
2023-04-21T19:22:13.830Z,5.30
2023-04-21T19:24:40.472Z,5.43
2023-04-21T19:27:07.039Z,5.63
2023-04-21T19:29:33.488Z,5.60
2023-04-21T19:31:59.904Z,5.70
2023-04-21T19:34:26.651Z,5.43
2023-04-21T19:36:53.132Z,5.55
2023-04-21T19:39:19.910Z,5.22
2023-04-21T19:41:46.281Z,5.20
2023-04-21T19:44:15.108Z,5.70
2023-04-21T19:46:41.641Z,5.40
2023-04-21T19:49:08.950Z,5.35
2023-04-21T19:51:35.254Z,5.90
2023-04-21T19:54:10.688Z,5.25
2023-04-21T19:56:39.102Z,5.13
2023-04-21T19:59:09.881Z,5.43
2023-04-21T20:01:36.336Z,5.30
2023-04-21T20:04:04.655Z,5.50
2023-04-21T20:06:34.814Z,5.38
2023-04-21T20:09:01.195Z,5.47
2023-04-21T20:11:29.069Z,5.55
2023-04-21T20:13:55.714Z,5.40
2023-04-21T20:16:22.074Z,5.30
2023-04-21T20:18:48.447Z,5.55
2023-04-21T20:21:14.740Z,5.20
2023-04-21T20:23:43.349Z,5.10
2023-04-21T20:26:09.705Z,5.40
2023-04-21T20:28:36.167Z,5.50
2023-04-21T20:31:02.653Z,5.68
2023-04-21T20:33:29.054Z,5.63
2023-04-21T20:35:55.696Z,5.82
2023-04-21T20:38:22.550Z,6.18
2023-04-21T20:40:48.908Z,5.70
2023-04-21T20:43:15.774Z,4.85
2023-04-21T20:45:42.112Z,5.82
2023-04-21T20:48:08.431Z,6.03
2023-04-21T20:50:34.743Z,6.00
2023-04-21T20:53:01.099Z,5.50
2023-04-21T20:55:27.556Z,5.53
2023-04-21T20:57:53.852Z,5.43
2023-04-21T21:00:22.575Z,5.43
2023-04-21T21:02:48.988Z,5.50
2023-04-21T21:05:15.406Z,5.90
2023-04-21T21:07:41.761Z,6.18
2023-04-21T21:10:08.496Z,5.70
2023-04-21T21:12:34.815Z,5.63
2023-04-21T21:15:01.163Z,5.68
2023-04-21T21:17:27.538Z,5.40
2023-04-21T21:19:53.924Z,5.85
2023-04-21T21:22:20.221Z,5.07
2023-04-21T21:24:46.730Z,5.60
2023-04-21T21:27:13.099Z,5.40
2023-04-21T21:29:39.642Z,5.22
2023-04-21T21:32:06.438Z,6.15
2023-04-21T21:34:32.719Z,5.25
2023-04-21T21:36:59.176Z,5.03
2023-04-21T21:39:25.466Z,5.88
2023-04-21T21:41:51.811Z,5.80
2023-04-21T21:44:18.179Z,4.82
2023-04-21T21:46:44.603Z,5.20
2023-04-21T21:49:11.021Z,6.53
2023-04-21T21:51:37.386Z,7.68
2023-04-21T21:54:03.753Z,7.35
2023-04-21T21:56:30.108Z,6.93
2023-04-21T21:58:56.504Z,5.65
2023-04-21T22:01:23.242Z,5.57
2023-04-21T22:03:49.720Z,5.38
2023-04-21T22:06:17.225Z,5.38
2023-04-21T22:08:44.026Z,5.40
2023-04-21T22:11:10.345Z,5.80
2023-04-21T22:13:36.685Z,6.32
2023-04-21T22:16:03.037Z,5.25
2023-04-21T22:18:29.410Z,5.40
2023-04-21T22:20:55.862Z,5.28
2023-04-21T22:23:22.257Z,5.80
2023-04-21T22:25:48.566Z,5.47
2023-04-21T22:28:14.907Z,5.93
2023-04-21T22:30:41.199Z,5.88
2023-04-21T22:33:07.572Z,5.90
2023-04-21T22:35:34.081Z,5.35
2023-04-21T22:38:00.391Z,5.90
2023-04-21T22:40:26.718Z,7.95
2023-04-21T22:42:53.312Z,10.05
2023-04-21T22:45:19.638Z,9.52
2023-04-21T22:47:46.038Z,9.52
2023-04-21T22:50:12.542Z,9.15
2023-04-21T22:52:38.838Z,9.18
2023-04-21T22:55:05.527Z,8.02
2023-04-21T22:57:31.961Z,7.78
2023-04-21T22:59:58.549Z,6.43
2023-04-21T23:02:24.961Z,6.30
2023-04-21T23:04:51.358Z,6.70
2023-04-21T23:07:17.677Z,6.60
2023-04-21T23:09:44.004Z,6.45
2023-04-21T23:12:10.416Z,6.80
2023-04-21T23:14:36.753Z,6.47
2023-04-21T23:17:03.158Z,6.32
2023-04-21T23:19:29.521Z,6.22
2023-04-21T23:21:55.954Z,6.05
2023-04-21T23:24:22.280Z,6.15
2023-04-21T23:26:48.607Z,6.65
2023-04-21T23:29:14.965Z,5.88
2023-04-21T23:31:41.371Z,5.70
2023-04-21T23:34:07.758Z,5.65
2023-04-21T23:36:34.118Z,5.78
2023-04-21T23:39:00.414Z,5.88
2023-04-21T23:41:26.892Z,5.20
2023-04-21T23:43:53.230Z,5.45
2023-04-21T23:46:19.641Z,6.32
2023-04-21T23:48:45.983Z,5.22
2023-04-21T23:51:12.434Z,6.13
2023-04-21T23:53:38.880Z,5.75
2023-04-21T23:56:05.409Z,5.70
2023-04-21T23:58:31.748Z,5.28
